Geneseo, Kansas
Current Conditions -  °F | °C
As of 12:53 PM on Tuesday 27 Jan 2015 (Local Time) from KSLN Reporting Station
Clear Clear  
Wind Chill: 67°   Ceiling: Unl
Heat Index: 67°   Visibility: 10mi
Dew Point: 35°   Wind: 10mph
Humidity: 31%   Direction: 170°S
Pressure: 30.04"   Gusts: NA
Location:  38.52°N, 98.16°W
Report Text: KSLN 271853Z 17009KT 10SM CLR 19/02 A3004 RMK AO2 SLP173 T01940017
Loading
Personal Weather Stations






























Interactive Weather Map New forecast layout! Learn more

10-Day Weather Forecast

Advertisements
Track Severe Weather on mobile